Amalia — SXMT — position and weather

sailwx.info

Track history (hours):
 
Tides and Currents Weather Stations Pressure Air Temp Water Temp Dewpoint Dewpoint Depression Visibility Wind Speed Wind Dir Waves Ship Positions

Amalia

Last reported at 2016-Dec-23 19:08 UTC. Time now 2017-Jan-18 22:17 UTC.
Position N 01°15' E 104°03'.
Warning: this ship's position is 26 days out of date.

Length 225 m; draft 2.9 m.

Type: Ship. MMSI: 239652000.

Date/timePositionNaut miles runAvg speedWind from/ knotsBaromVisibWave heightAir tempDewpointWater temp
2016-Dec-23 19:08N 01°15' E 104°03'5 7.9
2016-Dec-23 18:33N 01°16' E 103°59'1 1.4
2016-Dec-23 17:31N 01°16' E 103°58'0 0.0
2016-Dec-23 16:28N 01°16' E 103°58'0 0.0
2016-Dec-23 14:31N 01°16' E 103°58'0 0.1
2016-Dec-23 13:31N 01°16' E 103°58'0 0.1
2016-Dec-23 12:31N 01°16' E 103°58'0 0.1
2016-Dec-23 11:22N 01°16' E 103°58'2 2.2
2016-Dec-23 10:33N 01°15' E 103°56'2 1.7
2016-Dec-23 09:33N 01°14' E 103°56'8 8.3
2016-Dec-23 08:33N 01°10' E 103°48'8810.8
2016-Dec-23 00:27N 01°46' E 102°29'1212.8
2016-Dec-22 23:32N 01°52' E 102°18'  
Track history (hours):
 
Tides and Currents Weather Stations Pressure Air Temp Water Temp Dewpoint Dewpoint Depression Visibility Wind Speed Wind Dir Waves Ship Positions

Amalia

Last reported at 2016-Dec-23 19:08 UTC. Time now 2017-Jan-18 22:17 UTC.
Position N 01°15' E 104°03'.
Warning: this ship's position is 26 days out of date.

Length 225 m; draft 2.9 m.

Type: Ship. MMSI: 239652000.

Date/timePositionNaut miles runAvg speedWind from/ knotsBaromVisibWave heightAir tempDewpointWater temp
2016-Dec-23 19:08N 01°15' E 104°03'5 7.9
2016-Dec-23 18:33N 01°16' E 103°59'1 1.4
2016-Dec-23 17:31N 01°16' E 103°58'0 0.0
2016-Dec-23 16:28N 01°16' E 103°58'0 0.0
2016-Dec-23 14:31N 01°16' E 103°58'0 0.1
2016-Dec-23 13:31N 01°16' E 103°58'0 0.1
2016-Dec-23 12:31N 01°16' E 103°58'0 0.1
2016-Dec-23 11:22N 01°16' E 103°58'2 2.2
2016-Dec-23 10:33N 01°15' E 103°56'2 1.7
2016-Dec-23 09:33N 01°14' E 103°56'8 8.3
2016-Dec-23 08:33N 01°10' E 103°48'8810.8
2016-Dec-23 00:27N 01°46' E 102°29'1212.8
2016-Dec-22 23:32N 01°52' E 102°18'  

Dump ship's entire track history